Time;durP1;ratioP1;P1;durP2;ratioP2;P2;SDS_P1;SDS_P2;PMS_P1;PMS_P2;Temp;Humidity;BMP_temperature;BMP_pressure;BME280_temperature;BME280_humidity;BME280_pressure;Samples;Min_cycle;Max_cycle;Signal;HPM_P1;HPM_P2
2022/05/08 00:00:42;;;;;;;2.50;1.60;;;14.30;98.70;;;;;;5108839;27;20379;-87
2022/05/08 00:03:09;;;;;;;2.47;1.40;;;14.40;99.20;;;;;;5100320;28;20852;-88
2022/05/08 00:05:36;;;;;;;3.30;1.70;;;14.70;97.00;;;;;;5090823;28;20388;-85
2022/05/08 00:08:03;;;;;;;3.22;1.70;;;14.70;97.20;;;;;;5087082;28;20919;-84
2022/05/08 00:10:30;;;;;;;3.37;1.53;;;14.70;97.80;;;;;;5086456;28;20466;-84
2022/05/08 00:12:57;;;;;;;3.23;1.70;;;14.70;97.90;;;;;;5087826;28;20401;-84
2022/05/08 00:15:24;;;;;;;2.40;1.57;;;14.90;99.00;;;;;;5087526;28;20463;-83
2022/05/08 00:17:51;;;;;;;4.25;1.70;;;15.00;98.40;;;;;;5087680;28;20384;-84
2022/05/08 00:20:18;;;;;;;2.60;1.48;;;15.10;98.40;;;;;;5087781;28;20377;-84
2022/05/08 00:22:46;;;;;;;1.90;1.38;;;15.10;98.10;;;;;;5088506;28;20418;-84
2022/05/08 00:25:13;;;;;;;1.65;1.13;;;15.20;98.00;;;;;;5088650;28;20368;-84
2022/05/08 00:27:40;;;;;;;1.88;1.20;;;15.40;97.70;;;;;;5088688;28;20376;-84
2022/05/08 00:30:07;;;;;;;3.38;1.20;;;15.50;96.90;;;;;;5086715;28;20770;-84
2022/05/08 00:32:35;;;;;;;3.07;1.10;;;15.60;95.90;;;;;;5088139;28;20802;-84
2022/05/08 00:35:01;;;;;;;2.90;1.30;;;15.70;96.30;;;;;;5088415;28;20382;-84
2022/05/08 00:37:28;;;;;;;2.25;1.20;;;15.80;95.60;;;;;;5088401;28;20421;-84
2022/05/08 00:39:55;;;;;;;1.92;1.10;;;15.90;95.30;;;;;;5088277;28;20433;-84
2022/05/08 00:42:22;;;;;;;2.97;1.10;;;16.00;95.40;;;;;;5088435;28;20376;-84
2022/05/08 00:44:49;;;;;;;1.80;0.90;;;16.00;94.40;;;;;;5088212;28;20468;-84
2022/05/08 00:47:16;;;;;;;1.33;0.80;;;16.20;93.30;;;;;;5088259;28;20373;-84
2022/05/08 00:49:43;;;;;;;1.40;0.80;;;16.30;91.70;;;;;;5088187;28;20396;-84
2022/05/08 00:52:13;;;;;;;1.67;0.63;;;16.60;91.60;;;;;;5088255;28;20396;-84
2022/05/08 00:54:40;;;;;;;1.52;0.60;;;16.70;91.40;;;;;;5088093;28;20391;-85
2022/05/08 00:57:07;;;;;;;3.38;1.38;;;16.90;90.40;;;;;;5088032;28;20430;-84
2022/05/08 00:59:35;;;;;;;2.40;0.60;;;17.00;87.60;;;;;;5086658;28;20385;-84
2022/05/08 01:02:03;;;;;;;1.27;0.57;;;17.10;82.70;;;;;;5088105;28;20372;-85
2022/05/08 01:04:31;;;;;;;1.33;0.50;;;17.20;83.30;;;;;;5087835;28;20377;-85
2022/05/08 01:06:58;;;;;;;1.33;0.47;;;17.40;82.20;;;;;;5088201;28;20840;-84
2022/05/08 01:09:25;;;;;;;1.20;0.55;;;17.50;79.90;;;;;;5088276;28;20897;-84
2022/05/08 01:11:52;;;;;;;1.02;0.40;;;17.40;80.00;;;;;;5088543;28;20402;-84
2022/05/08 01:14:22;;;;;;;1.73;0.60;;;17.40;81.10;;;;;;5090367;28;20408;-86
2022/05/08 01:16:49;;;;;;;0.68;0.30;;;17.70;77.90;;;;;;5091829;28;20377;-84
2022/05/08 01:19:17;;;;;;;1.88;0.70;;;17.90;78.80;;;;;;5093121;28;20402;-85
2022/05/08 01:21:44;;;;;;;1.77;0.60;;;18.10;77.60;;;;;;5095490;28;20356;-84
2022/05/08 01:24:20;;;;;;;1.23;0.50;;;18.10;77.80;;;;;;5109219;28;20362;-84
2022/05/08 01:26:48;;;;;;;2.10;0.50;;;18.30;78.40;;;;;;5112983;28;20498;-88
2022/05/08 01:29:15;;;;;;;1.20;0.45;;;18.30;76.00;;;;;;5118298;28;20380;-84
2022/05/08 01:31:41;;;;;;;2.67;0.60;;;18.40;78.00;;;;;;5095752;28;20427;-84
2022/05/08 01:34:12;;;;;;;1.00;0.50;;;18.70;73.30;;;;;;5074157;28;20517;-92
2022/05/08 01:36:41;;;;;;;1.73;0.40;;;19.00;72.30;;;;;;5086523;28;20729;-86
2022/05/08 01:39:08;;;;;;;1.27;0.77;;;19.30;71.20;;;;;;5088184;28;20376;-83
2022/05/08 01:41:36;;;;;;;0.95;0.45;;;19.30;69.60;;;;;;5086588;28;20815;-88
2022/05/08 01:44:03;;;;;;;1.52;0.40;;;19.40;70.20;;;;;;5092195;28;20378;-83
2022/05/08 01:46:30;;;;;;;1.35;0.47;;;19.70;67.40;;;;;;5108144;28;20541;-81
2022/05/08 01:48:57;;;;;;;0.68;0.40;;;19.90;68.20;;;;;;5105591;28;20461;-88
2022/05/08 01:51:23;;;;;;;1.90;0.50;;;19.90;65.70;;;;;;5088169;28;20757;-84
2022/05/08 01:53:50;;;;;;;1.90;0.40;;;19.80;66.70;;;;;;5088303;28;20403;-84
2022/05/08 01:56:19;;;;;;;1.10;0.50;;;19.50;67.80;;;;;;5088908;28;20391;-89
2022/05/08 01:58:48;;;;;;;0.85;0.40;;;19.20;68.70;;;;;;5088757;28;20372;-87
2022/05/08 02:01:16;;;;;;;1.23;0.50;;;19.20;66.60;;;;;;5088926;28;20932;-94
2022/05/08 02:03:45;;;;;;;1.38;0.40;;;19.30;66.40;;;;;;5088406;28;20377;-87
2022/05/08 02:06:13;;;;;;;0.40;0.40;;;19.30;67.70;;;;;;5085837;28;20426;-81
2022/05/08 02:08:41;;;;;;;1.33;0.65;;;19.20;68.40;;;;;;5085885;28;20380;-83
2022/05/08 02:11:08;;;;;;;1.42;0.43;;;19.20;67.50;;;;;;5087534;28;20383;-85
2022/05/08 02:13:35;;;;;;;1.25;0.40;;;19.10;66.60;;;;;;5087424;28;20398;-84
2022/05/08 02:16:02;;;;;;;4.07;0.63;;;19.30;66.30;;;;;;5087343;28;20383;-85
2022/05/08 02:18:29;;;;;;;1.80;0.50;;;19.50;64.00;;;;;;5099113;28;20396;-84
2022/05/08 02:20:56;;;;;;;6.45;0.60;;;19.50;64.20;;;;;;5094349;28;20376;-90
2022/05/08 02:23:23;;;;;;;3.47;0.70;;;19.70;62.10;;;;;;5071701;28;20374;-90
2022/05/08 02:25:50;;;;;;;1.00;0.70;;;19.90;60.70;;;;;;5070943;28;20440;-82
2022/05/08 02:28:17;;;;;;;3.97;0.70;;;19.70;60.00;;;;;;5091437;28;20388;-88
2022/05/08 02:30:44;;;;;;;1.23;0.50;;;19.80;61.20;;;;;;5090750;28;20414;-82
2022/05/08 02:33:11;;;;;;;1.23;0.40;;;19.80;61.70;;;;;;5091884;28;20423;-92
2022/05/08 02:35:38;;;;;;;1.85;0.45;;;19.90;61.10;;;;;;5090710;28;20383;-86
2022/05/08 02:38:05;;;;;;;4.03;0.70;;;20.00;61.20;;;;;;5090914;28;20412;-84
2022/05/08 02:40:32;;;;;;;9.13;0.80;;;20.00;61.30;;;;;;5090737;28;20882;-85
2022/05/08 02:42:59;;;;;;;3.78;0.63;;;20.00;61.00;;;;;;5090128;28;20980;-83
2022/05/08 02:45:28;;;;;;;2.35;0.50;;;20.00;59.70;;;;;;5090083;28;20404;-84
2022/05/08 02:47:56;;;;;;;0.55;0.40;;;19.80;59.00;;;;;;5090834;28;20368;-85
2022/05/08 02:50:24;;;;;;;1.43;0.47;;;19.60;61.30;;;;;;5090935;28;20365;-85
2022/05/08 02:52:51;;;;;;;2.28;0.45;;;19.60;61.00;;;;;;5089035;28;20454;-86
2022/05/08 03:00:49;;;;;;;1.20;0.50;;;19.90;62.30;;;;;;5090277;28;20410;-85
2022/05/08 03:03:17;;;;;;;1.90;0.50;;;20.00;61.30;;;;;;5090301;28;20782;-86
2022/05/08 03:05:48;;;;;;;1.35;0.38;;;20.00;61.70;;;;;;5090470;28;20368;-85
2022/05/08 03:08:17;;;;;;;1.00;0.40;;;20.20;59.40;;;;;;5090549;28;20403;-83
2022/05/08 03:13:37;;;;;;;2.77;1.50;;;20.30;60.80;;;;;;5090136;28;20403;-85
2022/05/08 03:16:05;;;;;;;3.50;0.60;;;20.80;59.00;;;;;;5090107;28;20397;-85
2022/05/08 03:18:32;;;;;;;3.15;0.47;;;21.10;59.40;;;;;;5090200;28;20373;-86
2022/05/08 03:20:59;;;;;;;4.00;0.50;;;21.90;57.70;;;;;;5090084;28;20390;-85
2022/05/08 03:23:26;;;;;;;1.40;0.40;;;22.30;56.20;;;;;;5089975;28;20775;-85
2022/05/08 03:25:53;;;;;;;3.60;0.60;;;22.10;57.60;;;;;;5089829;28;20430;-86
2022/05/08 03:28:20;;;;;;;2.50;0.50;;;21.90;56.20;;;;;;5088646;28;20923;-85
2022/05/08 03:30:47;;;;;;;0.95;0.40;;;21.70;56.50;;;;;;5089673;28;20388;-85
2022/05/08 03:33:14;;;;;;;1.70;0.50;;;21.30;57.00;;;;;;5089602;28;20411;-85
2022/05/08 03:35:41;;;;;;;2.70;0.40;;;20.70;58.00;;;;;;5089581;28;20430;-85
2022/05/08 03:38:09;;;;;;;0.60;0.40;;;20.50;59.50;;;;;;5090043;28;20406;-85
2022/05/08 03:40:37;;;;;;;1.15;0.30;;;20.50;59.00;;;;;;5089845;28;20364;-85
2022/05/08 03:43:05;;;;;;;0.65;0.40;;;20.50;58.70;;;;;;5089590;28;20384;-85
2022/05/08 03:45:32;;;;;;;0.57;0.40;;;20.60;59.40;;;;;;5092198;28;20373;-85
2022/05/08 03:48:01;;;;;;;1.50;0.40;;;21.10;60.00;;;;;;5095899;28;20388;-85
2022/05/08 03:50:29;;;;;;;2.28;0.40;;;22.20;56.30;;;;;;5096158;28;20365;-85
2022/05/08 03:52:58;;;;;;;0.50;0.40;;;22.80;54.20;;;;;;5102222;28;20449;-85
2022/05/08 03:55:25;;;;;;;0.43;0.30;;;23.00;54.00;;;;;;5101527;28;20455;-85
2022/05/08 03:57:52;;;;;;;1.13;0.57;;;23.40;53.50;;;;;;5099308;28;20372;-85
2022/05/08 04:00:20;;;;;;;1.40;0.40;;;22.80;53.90;;;;;;5097248;28;20380;-85
2022/05/08 04:02:47;;;;;;;0.50;0.30;;;22.30;55.50;;;;;;5094543;28;20381;-85
2022/05/08 04:05:15;;;;;;;0.63;0.40;;;21.80;57.70;;;;;;5094127;28;20401;-85
2022/05/08 04:07:42;;;;;;;1.48;0.50;;;21.50;56.40;;;;;;5095650;28;20377;-84
2022/05/08 04:10:09;;;;;;;0.75;0.40;;;21.50;57.90;;;;;;5090084;28;20372;-87
2022/05/08 04:12:37;;;;;;;2.85;0.63;;;21.50;57.20;;;;;;5089664;28;20497;-85
2022/05/08 04:15:06;;;;;;;2.30;0.60;;;21.80;56.80;;;;;;5089798;28;20376;-86
2022/05/08 04:17:33;;;;;;;2.20;0.40;;;22.00;55.80;;;;;;5089530;28;20464;-85
2022/05/08 04:20:00;;;;;;;1.23;0.43;;;21.80;57.10;;;;;;5091599;28;20740;-85
2022/05/08 04:25:23;;;;;;;4.40;0.50;;;21.70;56.40;;;;;;5026364;28;20828;-87
2022/05/08 04:27:50;;;;;;;1.75;0.40;;;21.70;56.10;;;;;;5026414;28;20424;-86
2022/05/08 04:30:16;;;;;;;3.08;0.50;;;21.50;56.60;;;;;;5026436;28;20460;-85
2022/05/08 04:32:43;;;;;;;2.93;0.57;;;21.70;57.60;;;;;;5026251;28;20612;-85
2022/05/08 04:35:10;;;;;;;1.60;0.40;;;22.00;55.90;;;;;;5026097;28;20374;-85
2022/05/08 04:37:37;;;;;;;1.30;0.40;;;22.00;55.40;;;;;;5026417;28;20766;-84
2022/05/08 04:40:06;;;;;;;1.20;0.43;;;22.10;55.10;;;;;;5009208;28;20374;-86
2022/05/08 04:42:33;;;;;;;0.80;0.40;;;22.10;55.50;;;;;;5009774;28;20533;-85
2022/05/08 04:45:00;;;;;;;1.70;0.60;;;22.50;54.50;;;;;;5026113;28;20389;-85
2022/05/08 04:47:28;;;;;;;0.93;0.40;;;22.80;54.10;;;;;;5025973;28;20430;-84
2022/05/08 04:49:55;;;;;;;1.38;0.50;;;23.30;53.70;;;;;;5026033;28;20381;-85
2022/05/08 04:52:22;;;;;;;0.65;0.40;;;23.70;53.20;;;;;;5026013;28;20552;-85
2022/05/08 04:54:49;;;;;;;0.75;0.30;;;23.70;52.60;;;;;;5025654;28;20405;-86
2022/05/08 04:57:16;;;;;;;0.55;0.30;;;23.80;52.20;;;;;;5025749;28;20385;-86
2022/05/08 04:59:43;;;;;;;2.77;0.47;;;23.30;52.70;;;;;;5033907;28;20381;-86
2022/05/08 05:02:10;;;;;;;2.47;0.40;;;22.90;53.00;;;;;;5067479;28;20406;-85
2022/05/08 05:04:37;;;;;;;0.83;0.43;;;22.30;53.90;;;;;;5088320;28;20945;-84
2022/05/08 05:07:04;;;;;;;0.60;0.30;;;22.30;54.00;;;;;;5088942;28;20441;-90
2022/05/08 05:09:31;;;;;;;1.52;0.43;;;22.50;54.00;;;;;;5086639;28;20391;-88
2022/05/08 05:11:58;;;;;;;0.65;0.32;;;22.40;53.60;;;;;;5086640;28;20384;-88
2022/05/08 05:14:25;;;;;;;0.73;0.40;;;21.80;55.10;;;;;;5087563;28;20396;-87
2022/05/08 05:16:53;;;;;;;0.47;0.40;;;21.40;56.10;;;;;;5086602;28;20405;-86
2022/05/08 05:19:20;;;;;;;0.77;0.38;;;21.30;55.90;;;;;;5088024;28;20847;-85
2022/05/08 05:21:47;;;;;;;0.30;0.20;;;21.30;56.00;;;;;;5086518;28;20384;-86
2022/05/08 05:24:14;;;;;;;0.80;0.40;;;21.30;56.10;;;;;;5088062;28;20419;-85
2022/05/08 05:26:41;;;;;;;0.98;0.50;;;21.30;55.90;;;;;;5090562;28;20429;-86
2022/05/08 05:29:08;;;;;;;0.60;0.37;;;21.30;55.80;;;;;;5087254;28;20380;-86
2022/05/08 05:31:35;;;;;;;0.82;0.43;;;21.10;55.90;;;;;;5087912;28;20384;-85
2022/05/08 05:34:02;;;;;;;1.67;0.55;;;21.30;57.10;;;;;;5088244;28;20880;-86
2022/05/08 05:36:29;;;;;;;1.50;0.80;;;21.40;56.10;;;;;;5104338;28;20425;-83
2022/05/08 05:38:56;;;;;;;2.75;0.50;;;21.20;57.60;;;;;;5105835;28;20465;-85
2022/05/08 05:41:23;;;;;;;1.10;0.40;;;20.90;58.10;;;;;;5107354;28;20369;-86
2022/05/08 05:43:50;;;;;;;0.40;0.30;;;20.70;59.30;;;;;;5106635;28;20374;-86
2022/05/08 05:49:02;;;;;;;0.55;0.40;;;20.20;59.30;;;;;;5106868;28;20385;-85
2022/05/08 05:51:29;;;;;;;0.70;0.40;;;20.00;59.70;;;;;;5106221;28;20461;-85
2022/05/08 05:53:56;;;;;;;1.20;0.40;;;19.90;60.40;;;;;;5107978;28;20394;-86
2022/05/08 05:56:23;;;;;;;0.93;0.43;;;19.80;60.10;;;;;;5107967;28;20367;-85
2022/05/08 05:58:50;;;;;;;0.63;0.40;;;19.70;60.50;;;;;;5107640;28;20381;-85
2022/05/08 06:01:17;;;;;;;1.73;0.40;;;19.80;61.00;;;;;;5107527;28;20371;-84
2022/05/08 06:03:44;;;;;;;0.82;0.40;;;19.70;60.40;;;;;;5107680;28;20375;-84
2022/05/08 06:06:12;;;;;;;1.48;0.40;;;19.70;60.90;;;;;;5107606;28;20401;-86
2022/05/08 06:08:39;;;;;;;1.30;0.30;;;19.80;60.30;;;;;;5107803;28;20432;-84
2022/05/08 06:11:06;;;;;;;1.33;0.40;;;19.80;60.80;;;;;;5107671;28;20854;-85
2022/05/08 06:13:36;;;;;;;1.42;0.40;;;19.80;60.60;;;;;;5107320;28;20430;-85
2022/05/08 06:16:03;;;;;;;0.40;0.30;;;19.70;59.90;;;;;;5107180;28;20738;-85
2022/05/08 06:18:30;;;;;;;1.88;0.45;;;19.70;60.40;;;;;;5107391;28;20374;-84
2022/05/08 06:20:57;;;;;;;2.85;1.30;;;19.60;61.10;;;;;;5103762;28;20550;-86
2022/05/08 06:23:25;;;;;;;2.40;1.27;;;19.60;62.60;;;;;;5068542;28;20823;-87
2022/05/08 06:25:52;;;;;;;1.83;1.27;;;19.70;63.60;;;;;;5091636;28;20381;-84
2022/05/08 06:28:19;;;;;;;1.58;0.95;;;19.70;64.00;;;;;;5106577;28;20905;-83
2022/05/08 06:30:48;;;;;;;1.65;1.17;;;20.00;63.60;;;;;;5106925;28;20405;-87
2022/05/08 06:33:15;;;;;;;1.40;0.75;;;20.10;61.90;;;;;;5107256;28;20758;-84
2022/05/08 06:35:42;;;;;;;1.17;0.75;;;20.10;61.80;;;;;;5092661;28;20388;-84
2022/05/08 06:38:12;;;;;;;1.70;1.00;;;19.90;62.30;;;;;;5086882;28;20420;-81
2022/05/08 06:40:40;;;;;;;2.83;1.20;;;19.70;62.30;;;;;;5086791;28;20364;-83
2022/05/08 06:43:09;;;;;;;2.05;1.10;;;19.60;62.50;;;;;;5088266;28;20392;-85
2022/05/08 06:45:36;;;;;;;4.90;2.67;;;19.40;63.40;;;;;;5086507;28;21104;-83
2022/05/08 06:48:05;;;;;;;3.30;1.92;;;19.30;63.20;;;;;;5086036;28;20505;-84
2022/05/08 06:50:33;;;;;;;4.22;2.03;;;19.20;63.70;;;;;;5086532;28;20375;-85
2022/05/08 06:53:00;;;;;;;3.05;1.70;;;19.00;64.50;;;;;;5086029;28;20404;-82
2022/05/08 06:55:27;;;;;;;2.85;1.45;;;18.80;65.10;;;;;;5086069;28;20365;-82
2022/05/08 06:57:54;;;;;;;2.13;1.30;;;18.60;66.00;;;;;;5085956;28;20903;-84
2022/05/08 07:03:06;;;;;;;2.28;1.00;;;18.20;67.30;;;;;;5088412;28;20973;-83
2022/05/08 07:05:40;;;;;;;2.53;1.30;;;17.90;68.10;;;;;;5090063;28;20373;-85
2022/05/08 07:08:10;;;;;;;3.95;1.90;;;17.70;69.90;;;;;;5089986;28;20437;-85
2022/05/08 07:10:37;;;;;;;3.65;2.38;;;17.40;71.10;;;;;;5090397;28;20783;-86
2022/05/08 07:13:04;;;;;;;3.22;2.42;;;17.20;71.70;;;;;;5088727;28;20397;-83
2022/05/08 07:15:32;;;;;;;5.40;3.17;;;17.00;72.90;;;;;;5090277;28;20376;-86
2022/05/08 07:17:59;;;;;;;7.78;3.33;;;16.90;73.90;;;;;;5090156;28;20469;-84
2022/05/08 07:20:26;;;;;;;3.17;2.03;;;16.70;75.00;;;;;;5089946;28;20373;-84
2022/05/08 07:22:53;;;;;;;3.83;2.00;;;16.50;75.20;;;;;;5088712;28;20418;-86
2022/05/08 07:25:20;;;;;;;3.50;2.30;;;16.40;76.30;;;;;;5090203;28;20379;-83
2022/05/08 07:27:47;;;;;;;3.95;1.85;;;16.30;77.20;;;;;;5090290;28;20379;-88
2022/05/08 07:30:14;;;;;;;4.57;2.00;;;16.20;77.70;;;;;;5090229;28;20414;-82
2022/05/08 07:32:42;;;;;;;4.93;2.00;;;16.00;78.80;;;;;;5090034;28;20412;-84
2022/05/08 07:37:55;;;;;;;4.47;2.50;;;15.80;81.10;;;;;;5095463;28;20434;-82
2022/05/08 07:40:22;;;;;;;5.85;4.65;;;15.70;83.20;;;;;;5097542;28;20368;-85
2022/05/08 07:42:49;;;;;;;7.40;4.82;;;15.60;84.10;;;;;;5101016;28;20360;-84
2022/05/08 07:45:16;;;;;;;9.90;5.00;;;15.50;85.10;;;;;;5110246;28;20868;-82
2022/05/08 07:47:43;;;;;;;5.25;3.28;;;15.50;86.10;;;;;;5109354;28;20371;-84
2022/05/08 07:50:10;;;;;;;5.85;2.80;;;15.40;87.60;;;;;;5110616;28;20387;-85
2022/05/08 07:52:39;;;;;;;3.10;1.90;;;15.40;88.90;;;;;;5108380;28;20426;-86
2022/05/08 07:55:09;;;;;;;4.60;2.53;;;15.40;90.00;;;;;;5090058;28;20368;-83
2022/05/08 07:57:36;;;;;;;2.75;1.80;;;15.30;90.70;;;;;;5087308;28;20388;-86
2022/05/08 08:00:03;;;;;;;2.65;1.70;;;15.20;91.30;;;;;;5090111;28;20372;-86
2022/05/08 08:02:30;;;;;;;2.90;1.77;;;15.10;92.30;;;;;;5089349;28;20430;-86
2022/05/08 08:04:57;;;;;;;3.72;1.80;;;15.00;93.00;;;;;;5089636;28;20396;-85
2022/05/08 08:07:24;;;;;;;3.50;1.63;;;15.00;94.00;;;;;;5089548;28;20373;-83
2022/05/08 08:09:51;;;;;;;1.77;1.30;;;15.00;95.50;;;;;;5089227;28;20376;-84
2022/05/08 08:12:18;;;;;;;3.60;1.60;;;15.00;95.90;;;;;;5093345;28;20522;-86
2022/05/08 08:14:45;;;;;;;5.18;2.97;;;15.00;97.30;;;;;;5086870;28;20395;-84
2022/05/08 08:17:12;;;;;;;5.10;4.43;;;15.20;98.30;;;;;;5093688;28;20444;-84
2022/05/08 08:19:39;;;;;;;7.80;6.43;;;15.40;97.90;;;;;;5089348;28;21178;-85
2022/05/08 08:22:06;;;;;;;10.02;6.28;;;15.60;97.70;;;;;;5088998;28;20736;-85
2022/05/08 08:24:34;;;;;;;6.85;4.65;;;15.80;97.00;;;;;;5093605;28;20376;-83
2022/05/08 08:27:02;;;;;;;5.30;3.33;;;16.00;96.50;;;;;;5106148;28;20391;-84
2022/05/08 08:29:29;;;;;;;4.72;2.50;;;16.10;96.00;;;;;;5108724;28;20395;-83
2022/05/08 08:31:56;;;;;;;2.78;2.33;;;16.20;95.70;;;;;;5089871;28;20863;-87
2022/05/08 08:34:26;;;;;;;3.55;2.15;;;16.20;95.70;;;;;;5088430;28;20407;-87
2022/05/08 08:36:53;;;;;;;3.28;2.10;;;16.30;95.70;;;;;;5088078;28;20365;-85
2022/05/08 08:39:21;;;;;;;3.75;2.17;;;16.30;95.60;;;;;;5088303;28;20402;-83
2022/05/08 08:42:18;;;;;;;3.93;2.40;;;16.30;95.50;;;;;;5088345;28;20373;-84
2022/05/08 08:47:47;;;;;;;4.70;3.47;;;16.30;95.50;;;;;;5068406;28;20389;-85
2022/05/08 08:50:15;;;;;;;4.77;3.57;;;16.30;95.60;;;;;;5066509;28;20389;-81
2022/05/08 08:52:43;;;;;;;4.55;2.70;;;16.40;95.90;;;;;;5081559;28;20390;-87
2022/05/08 08:55:10;;;;;;;4.32;2.70;;;16.40;95.90;;;;;;5097892;28;20392;-86
2022/05/08 08:57:37;;;;;;;4.60;2.67;;;16.40;95.90;;;;;;5087925;28;20843;-86
2022/05/08 09:00:09;;;;;;;4.07;2.30;;;16.30;95.80;;;;;;5088092;28;20411;-84
2022/05/08 09:02:36;;;;;;;4.57;2.85;;;16.30;96.00;;;;;;5087984;28;20364;-86
2022/05/08 09:05:06;;;;;;;5.67;2.83;;;16.30;96.20;;;;;;5087275;28;20384;-85
2022/05/08 09:07:47;;;;;;;4.90;2.73;;;16.10;96.30;;;;;;5091235;28;20462;-83
2022/05/08 09:10:21;;;;;;;4.90;2.70;;;16.20;96.70;;;;;;5087435;28;20392;-83
2022/05/08 09:12:54;;;;;;;4.13;2.60;;;16.10;96.80;;;;;;5080690;28;20396;-84
2022/05/08 09:15:26;;;;;;;4.43;2.70;;;16.00;96.80;;;;;;5087315;28;20388;-84
2022/05/08 09:18:04;;;;;;;4.20;3.00;;;15.90;97.20;;;;;;5087437;28;20368;-83
2022/05/08 09:20:41;;;;;;;5.55;3.60;;;15.80;97.30;;;;;;5087223;28;20372;-84
2022/05/08 09:23:14;;;;;;;4.80;4.07;;;15.80;97.40;;;;;;5087459;28;20466;-83
2022/05/08 09:25:57;;;;;;;4.57;3.70;;;15.70;97.60;;;;;;5089529;28;20459;-84
2022/05/08 09:28:28;;;;;;;5.87;3.90;;;15.70;98.00;;;;;;5107853;28;20788;-83
2022/05/08 09:31:12;;;;;;;8.13;5.28;;;15.60;98.30;;;;;;5107680;28;20387;-84
2022/05/08 09:33:47;;;;;;;7.85;4.90;;;15.50;98.50;;;;;;5107782;28;20434;-84
2022/05/08 09:36:25;;;;;;;6.90;4.90;;;15.50;98.70;;;;;;5104649;28;20720;-84
2022/05/08 09:38:52;;;;;;;6.38;4.70;;;15.40;99.20;;;;;;5107702;28;20408;-83
2022/05/08 09:41:23;;;;;;;6.25;4.57;;;15.30;99.80;;;;;;5107968;28;20423;-84
2022/05/08 09:43:51;;;;;;;6.77;4.70;;;15.30;99.90;;;;;;5107624;28;20379;-85
2022/05/08 09:46:20;;;;;;;5.82;4.28;;;15.20;99.90;;;;;;5106567;28;20370;-84
2022/05/08 09:48:48;;;;;;;7.30;4.47;;;15.10;99.90;;;;;;5085881;28;20384;-83
2022/05/08 09:51:16;;;;;;;6.18;4.30;;;15.00;99.90;;;;;;5086558;28;20475;-84
2022/05/08 09:53:45;;;;;;;5.72;4.07;;;14.90;99.90;;;;;;5086811;28;20411;-84
2022/05/08 09:56:14;;;;;;;5.88;4.03;;;14.80;99.90;;;;;;5086725;28;20388;-84
2022/05/08 09:58:41;;;;;;;7.10;3.70;;;14.80;99.90;;;;;;5085897;28;20392;-84
2022/05/08 10:01:08;;;;;;;7.38;3.53;;;14.70;99.90;;;;;;5086434;28;20894;-84
2022/05/08 10:03:36;;;;;;;5.97;3.58;;;14.60;99.90;;;;;;5086852;28;20896;-84
2022/05/08 10:06:04;;;;;;;6.78;3.53;;;14.50;99.90;;;;;;5087032;28;20374;-85
2022/05/08 10:08:43;;;;;;;7.85;3.08;;;14.40;99.90;;;;;;5086882;28;20457;-83
2022/05/08 10:14:03;;;;;;;9.50;3.42;;;14.30;99.90;;;;;;5079421;28;20491;-85
2022/05/08 10:16:48;;;;;;;9.63;3.00;;;14.30;99.90;;;;;;5090245;28;20380;-84
2022/05/08 10:19:22;;;;;;;7.15;2.90;;;14.10;99.90;;;;;;5085750;28;20426;-85
2022/05/08 10:21:59;;;;;;;8.63;3.30;;;13.90;99.90;;;;;;5086538;28;20372;-84
2022/05/08 10:24:40;;;;;;;8.23;4.68;;;13.90;99.90;;;;;;5086173;28;20380;-86
2022/05/08 10:27:17;;;;;;;8.82;5.60;;;13.80;99.90;;;;;;5077464;28;20447;-85
2022/05/08 10:29:49;;;;;;;11.10;6.67;;;13.80;99.90;;;;;;5086590;28;20576;-85
2022/05/08 10:32:32;;;;;;;9.65;6.05;;;13.70;99.90;;;;;;5086843;28;20384;-84
2022/05/08 10:35:13;;;;;;;11.90;6.38;;;13.60;99.90;;;;;;5091442;28;20391;-83
2022/05/08 10:38:00;;;;;;;11.03;5.90;;;13.50;99.90;;;;;;5082997;28;20380;-84
2022/05/08 10:40:30;;;;;;;11.33;6.10;;;13.50;99.90;;;;;;5033480;28;20397;-83
2022/05/08 10:43:00;;;;;;;10.95;6.65;;;13.40;99.90;;;;;;5028188;28;20908;-84
2022/05/08 10:45:32;;;;;;;11.18;6.30;;;13.30;99.90;;;;;;5026986;28;20885;-84
2022/05/08 10:48:08;;;;;;;9.15;6.13;;;13.20;99.90;;;;;;5027682;28;20381;-84
2022/05/08 10:50:49;;;;;;;11.77;6.33;;;13.10;99.90;;;;;;5035744;28;20782;-84
2022/05/08 10:53:24;;;;;;;10.00;6.00;;;13.00;99.90;;;;;;5019746;28;20893;-84
2022/05/08 10:55:52;;;;;;;8.43;5.68;;;12.90;99.90;;;;;;5027874;28;20460;-85
2022/05/08 10:58:20;;;;;;;10.32;6.07;;;12.80;99.90;;;;;;5027806;28;20378;-85
2022/05/08 11:00:47;;;;;;;9.15;5.47;;;12.80;99.90;;;;;;5027344;28;20459;-85
2022/05/08 11:03:21;;;;;;;8.90;5.85;;;12.80;99.90;;;;;;5027647;28;20398;-84
2022/05/08 11:05:50;;;;;;;8.70;5.72;;;12.80;99.90;;;;;;5047583;28;20638;-84
2022/05/08 11:08:29;;;;;;;10.50;5.60;;;12.80;99.90;;;;;;5047001;28;20383;-84
2022/05/08 11:11:04;;;;;;;10.98;5.85;;;12.80;99.90;;;;;;5027320;28;20485;-82
2022/05/08 11:13:44;;;;;;;7.07;5.15;;;12.80;99.90;;;;;;5033578;28;20472;-84
2022/05/08 11:16:13;;;;;;;9.48;5.40;;;12.70;99.90;;;;;;5016161;28;20700;-85
2022/05/08 11:18:40;;;;;;;10.10;5.65;;;12.70;99.90;;;;;;5077745;28;20742;-85
2022/05/08 11:21:09;;;;;;;8.52;6.07;;;12.60;99.90;;;;;;5089881;28;20373;-84
2022/05/08 11:23:44;;;;;;;9.20;5.78;;;12.60;99.90;;;;;;5094139;28;20378;-84
2022/05/08 11:26:29;;;;;;;10.13;5.57;;;12.60;99.90;;;;;;5096230;28;20682;-80
2022/05/08 11:28:58;;;;;;;9.75;6.25;;;12.50;99.90;;;;;;5110613;28;20500;-85
2022/05/08 11:31:28;;;;;;;8.27;5.68;;;12.40;99.90;;;;;;5109997;28;20394;-84
2022/05/08 11:36:44;;;;;;;9.57;7.20;;;12.30;99.90;;;;;;5089491;28;20449;-83
2022/05/08 11:39:19;;;;;;;11.48;8.38;;;12.20;99.90;;;;;;5101552;28;20446;-83
2022/05/08 11:41:49;;;;;;;12.48;8.13;;;12.20;99.90;;;;;;5104148;28;20398;-84
2022/05/08 11:44:17;;;;;;;11.77;7.45;;;12.20;99.90;;;;;;5087850;28;20396;-83
2022/05/08 11:46:49;;;;;;;11.40;7.38;;;12.10;99.90;;;;;;5088407;28;20388;-83
2022/05/08 11:49:30;;;;;;;10.13;7.00;;;12.10;99.90;;;;;;5087508;28;20388;-84
2022/05/08 11:52:03;;;;;;;11.25;7.15;;;12.00;99.90;;;;;;5088989;28;20404;-83
2022/05/08 11:54:32;;;;;;;8.52;6.30;;;12.00;99.90;;;;;;5088051;28;21240;-82
2022/05/08 11:57:28;;;;;;;10.02;5.40;;;11.90;99.90;;;;;;5088976;28;20425;-83
2022/05/08 12:00:07;;;;;;;8.05;5.18;;;11.90;99.90;;;;;;5044703;28;20387;-84
2022/05/08 12:02:49;;;;;;;7.03;5.40;;;11.90;99.90;;;;;;5046053;28;20392;-84
2022/05/08 12:05:24;;;;;;;10.90;6.38;;;11.80;99.90;;;;;;5040933;28;20388;-84
2022/05/08 12:07:51;;;;;;;7.97;5.63;;;11.80;99.90;;;;;;5045924;28;20396;-84
2022/05/08 12:10:19;;;;;;;8.07;5.30;;;11.70;99.90;;;;;;5021207;28;20389;-83
2022/05/08 12:12:46;;;;;;;7.57;4.32;;;11.60;99.90;;;;;;5045719;28;20455;-83
2022/05/08 12:15:13;;;;;;;6.00;3.47;;;11.70;99.90;;;;;;5045635;28;20475;-83
2022/05/08 12:17:42;;;;;;;10.32;3.20;;;11.70;99.90;;;;;;5046019;28;20383;-84
2022/05/08 12:20:19;;;;;;;6.38;3.58;;;11.80;99.90;;;;;;5045968;28;20471;-84
2022/05/08 12:22:58;;;;;;;6.95;3.63;;;11.80;99.90;;;;;;5046209;28;21077;-84
2022/05/08 12:25:25;;;;;;;6.50;3.30;;;11.80;99.90;;;;;;5045310;28;20478;-84
2022/05/08 12:27:52;;;;;;;8.20;3.35;;;11.80;99.90;;;;;;5029819;28;20396;-85
2022/05/08 12:30:20;;;;;;;8.97;3.90;;;11.70;99.90;;;;;;5044619;28;20407;-84
2022/05/08 12:32:47;;;;;;;11.30;4.22;;;11.70;99.90;;;;;;5044963;28;20537;-84
2022/05/08 12:35:15;;;;;;;6.32;3.40;;;11.60;99.90;;;;;;5047217;28;20403;-84
2022/05/08 12:37:42;;;;;;;10.27;4.00;;;11.50;99.90;;;;;;5083131;28;20390;-84
2022/05/08 12:40:10;;;;;;;10.43;3.65;;;11.50;99.90;;;;;;5088476;28;20380;-84
2022/05/08 12:42:37;;;;;;;10.85;3.28;;;11.40;99.90;;;;;;5088322;28;20384;-85
2022/05/08 12:45:05;;;;;;;8.20;3.40;;;11.40;99.90;;;;;;5088124;28;20368;-85
2022/05/08 12:47:32;;;;;;;6.37;3.10;;;11.30;99.90;;;;;;5089716;28;20416;-84
2022/05/08 12:49:59;;;;;;;6.05;3.00;;;11.30;99.90;;;;;;5088197;28;20379;-84
2022/05/08 12:52:26;;;;;;;9.85;3.00;;;11.20;99.90;;;;;;5088260;28;20427;-84
2022/05/08 12:54:55;;;;;;;8.20;3.40;;;11.20;99.90;;;;;;5087976;28;20384;-84
2022/05/08 13:00:10;;;;;;;11.18;3.40;;;11.20;99.90;;;;;;5068205;28;20412;-84
2022/05/08 13:02:37;;;;;;;9.73;2.80;;;11.20;99.90;;;;;;5083328;28;20479;-85
2022/05/08 13:05:04;;;;;;;7.07;2.63;;;11.20;99.90;;;;;;5099273;28;20385;-85
2022/05/08 13:07:31;;;;;;;7.95;2.60;;;11.20;99.90;;;;;;5087606;28;20381;-83
2022/05/08 13:09:58;;;;;;;4.28;1.52;;;11.20;99.90;;;;;;5088018;28;20380;-84
2022/05/08 13:12:25;;;;;;;5.55;1.70;;;11.30;99.90;;;;;;5087035;28;20419;-84
2022/05/08 13:14:52;;;;;;;5.68;2.03;;;11.40;99.90;;;;;;5087634;28;20400;-84
2022/05/08 13:17:19;;;;;;;5.50;2.20;;;11.40;99.90;;;;;;5087433;28;20425;-84
2022/05/08 13:19:46;;;;;;;5.80;1.60;;;11.50;99.90;;;;;;5088014;28;20464;-84
2022/05/08 13:22:13;;;;;;;2.90;1.30;;;11.50;99.90;;;;;;5087596;28;20433;-84
2022/05/08 13:24:40;;;;;;;3.53;1.20;;;11.60;99.90;;;;;;5091073;28;20417;-84